Time;durP1;ratioP1;P1;durP2;ratioP2;P2;SDS_P1;SDS_P2;PMS_P1;PMS_P2;Temp;Humidity;BMP_temperature;BMP_pressure;BME280_temperature;BME280_humidity;BME280_pressure;Samples;Min_cycle;Max_cycle;Signal;HPM_P1;HPM_P2
2022/05/17 00:00:25;;;;;;;5.27;3.30;;;22.80;50.20;;;;;;5052230;28;20431;-34
2022/05/17 00:02:51;;;;;;;4.97;2.50;;;22.90;50.10;;;;;;5052244;28;20170;-34
2022/05/17 00:05:17;;;;;;;6.10;4.33;;;22.80;49.50;;;;;;5052095;28;20411;-34
2022/05/17 00:07:43;;;;;;;4.57;2.90;;;22.90;49.50;;;;;;5052119;28;20185;-34
2022/05/17 00:10:10;;;;;;;5.17;3.00;;;22.90;49.90;;;;;;5052114;28;20655;-34
2022/05/17 00:12:35;;;;;;;3.70;2.73;;;22.90;50.10;;;;;;5052278;28;20180;-34
2022/05/17 00:15:02;;;;;;;4.00;3.10;;;22.90;50.30;;;;;;5052068;28;21021;-34
2022/05/17 00:17:28;;;;;;;5.03;3.27;;;22.90;49.80;;;;;;5051712;28;20242;-34
2022/05/17 00:19:54;;;;;;;7.67;3.40;;;22.90;49.60;;;;;;5051810;28;20546;-35
2022/05/17 00:22:19;;;;;;;3.67;2.70;;;22.90;49.50;;;;;;5052188;28;20423;-35
2022/05/17 00:24:46;;;;;;;3.20;2.90;;;22.90;49.30;;;;;;5052196;28;20640;-34
2022/05/17 00:27:12;;;;;;;3.93;2.53;;;22.90;49.30;;;;;;5051802;28;20787;-34
2022/05/17 00:29:37;;;;;;;3.30;2.57;;;22.80;49.40;;;;;;5052014;28;20416;-34
2022/05/17 00:32:04;;;;;;;6.00;3.17;;;22.80;49.40;;;;;;5051938;28;20265;-35
2022/05/17 00:34:29;;;;;;;4.43;2.83;;;22.80;49.70;;;;;;5051841;28;20252;-34
2022/05/17 00:36:56;;;;;;;7.93;3.27;;;22.80;49.80;;;;;;5051823;28;20959;-34
2022/05/17 00:39:21;;;;;;;10.73;2.93;;;22.80;49.70;;;;;;5051945;28;20217;-35
2022/05/17 00:41:47;;;;;;;4.70;2.30;;;22.80;49.60;;;;;;5051952;28;20408;-35
2022/05/17 00:47:15;;;;;;;5.03;2.53;;;22.80;49.10;;;;;;5051666;28;20180;-34
2022/05/17 00:50:02;;;;;;;6.27;2.10;;;22.80;49.00;;;;;;5051736;28;20825;-35
2022/05/17 00:52:44;;;;;;;3.60;2.67;;;22.70;49.50;;;;;;5051599;28;20411;-34
2022/05/17 00:55:16;;;;;;;4.00;2.97;;;22.70;49.40;;;;;;5051676;28;20507;-34
2022/05/17 00:57:49;;;;;;;4.40;3.27;;;22.70;50.10;;;;;;5051340;28;20435;-34
2022/05/17 01:00:17;;;;;;;5.00;3.00;;;22.60;50.00;;;;;;5051570;28;20593;-35
2022/05/17 01:02:53;;;;;;;4.23;2.70;;;22.60;49.70;;;;;;5051579;28;20489;-34
2022/05/17 01:05:23;;;;;;;4.90;3.30;;;22.60;50.20;;;;;;5055270;28;20891;-34
2022/05/17 01:07:55;;;;;;;4.03;3.23;;;22.60;49.90;;;;;;5055051;28;20423;-34
2022/05/17 01:10:23;;;;;;;2.93;2.53;;;22.60;50.30;;;;;;5055392;28;20412;-35
2022/05/17 01:14:57;;;;;;;5.37;2.50;;;22.60;50.20;;;;;;5055284;28;20769;-35
2022/05/17 01:15:36;;;;;;;5.27;2.93;;;22.60;50.50;;;;;;5055128;28;20423;-34
2022/05/17 01:18:03;;;;;;;3.07;2.40;;;22.50;50.80;;;;;;5054892;28;20974;-34
2022/05/17 01:20:29;;;;;;;3.20;2.20;;;22.60;50.80;;;;;;5055117;28;20789;-34
2022/05/17 01:22:56;;;;;;;4.13;2.50;;;22.60;51.00;;;;;;5055181;28;20395;-35
2022/05/17 01:25:22;;;;;;;4.27;3.40;;;22.50;51.00;;;;;;5055028;28;20792;-34
2022/05/17 01:27:55;;;;;;;3.17;2.83;;;22.50;51.30;;;;;;5054895;28;20431;-35
2022/05/17 01:30:24;;;;;;;4.07;2.70;;;22.50;51.10;;;;;;5055041;28;20177;-35
2022/05/17 01:32:50;;;;;;;4.10;2.93;;;22.50;51.10;;;;;;5054906;28;20819;-34
2022/05/17 01:35:16;;;;;;;4.03;2.97;;;22.40;51.10;;;;;;5054923;28;20810;-34
2022/05/17 01:37:42;;;;;;;5.87;4.17;;;22.50;51.20;;;;;;5054785;28;20459;-34
2022/05/17 01:40:10;;;;;;;3.63;2.67;;;22.50;51.10;;;;;;5054924;28;20494;-35
2022/05/17 01:42:36;;;;;;;3.97;3.57;;;22.50;50.70;;;;;;5054761;28;20440;-34
2022/05/17 01:45:03;;;;;;;2.97;2.30;;;22.50;51.00;;;;;;5054770;28;20432;-35
2022/05/17 01:47:29;;;;;;;3.90;3.37;;;22.50;51.00;;;;;;5054769;28;20443;-34
2022/05/17 01:49:55;;;;;;;3.50;2.63;;;22.40;50.80;;;;;;5054825;28;20442;-34
2022/05/17 01:52:21;;;;;;;4.33;3.10;;;22.50;50.90;;;;;;5054618;28;20434;-34
2022/05/17 01:54:46;;;;;;;3.50;3.17;;;22.50;50.60;;;;;;5054727;28;20180;-34
2022/05/17 01:57:12;;;;;;;7.07;3.70;;;22.50;50.80;;;;;;5054310;28;20428;-35
2022/05/17 01:59:38;;;;;;;3.70;2.93;;;22.50;50.70;;;;;;5054263;28;20200;-35
2022/05/17 02:02:04;;;;;;;3.50;3.10;;;22.50;51.10;;;;;;5054311;28;20177;-35
2022/05/17 02:04:30;;;;;;;4.80;3.77;;;22.40;51.00;;;;;;5054360;28;20179;-34
2022/05/17 02:06:56;;;;;;;5.30;3.57;;;22.50;51.10;;;;;;5054233;28;20944;-35
2022/05/17 02:09:21;;;;;;;6.00;4.23;;;22.50;51.10;;;;;;5054382;28;20407;-34
2022/05/17 02:11:47;;;;;;;6.73;4.40;;;22.40;52.20;;;;;;5054215;28;20177;-34
2022/05/17 02:14:13;;;;;;;4.10;3.33;;;22.40;51.00;;;;;;5054007;28;20265;-35
2022/05/17 02:16:40;;;;;;;5.87;4.60;;;22.30;51.00;;;;;;5054068;28;20173;-34
2022/05/17 02:19:09;;;;;;;3.53;3.23;;;22.30;51.30;;;;;;5053681;28;20606;-35
2022/05/17 02:21:35;;;;;;;9.47;4.50;;;22.30;51.40;;;;;;5054156;28;20412;-34
2022/05/17 02:24:02;;;;;;;5.70;3.50;;;22.30;52.00;;;;;;5053953;28;20403;-35
2022/05/17 02:26:29;;;;;;;4.63;3.60;;;22.30;51.40;;;;;;5053985;28;20466;-35
2022/05/17 02:28:54;;;;;;;6.40;4.73;;;22.30;51.00;;;;;;5053615;28;20431;-34
2022/05/17 02:31:20;;;;;;;4.70;3.90;;;22.30;51.20;;;;;;5053727;28;20403;-35
2022/05/17 02:33:47;;;;;;;6.20;5.50;;;22.40;51.20;;;;;;5053779;28;20224;-35
2022/05/17 02:36:13;;;;;;;7.40;3.97;;;22.40;52.00;;;;;;5053884;28;20185;-34
2022/05/17 02:38:40;;;;;;;4.97;4.20;;;22.30;51.30;;;;;;5053564;28;20455;-34
2022/05/17 02:41:06;;;;;;;5.53;3.93;;;22.30;51.20;;;;;;5053646;28;21160;-35
2022/05/17 02:43:32;;;;;;;7.20;5.00;;;22.30;51.70;;;;;;5053622;28;20482;-34
2022/05/17 02:45:58;;;;;;;5.90;4.83;;;22.20;51.30;;;;;;5053456;28;20821;-34
2022/05/17 02:48:24;;;;;;;5.70;5.17;;;22.20;51.40;;;;;;5053519;28;20962;-34
2022/05/17 02:50:49;;;;;;;7.73;5.20;;;22.20;51.60;;;;;;5053493;28;20173;-35
2022/05/17 02:53:16;;;;;;;8.33;5.17;;;22.10;51.90;;;;;;5053597;28;20177;-34
2022/05/17 02:55:41;;;;;;;6.30;5.07;;;22.10;52.70;;;;;;5053463;28;20173;-34
2022/05/17 02:58:07;;;;;;;8.97;5.50;;;22.10;52.50;;;;;;5052874;28;20930;-35
2022/05/17 03:00:33;;;;;;;8.00;5.50;;;22.10;51.80;;;;;;5053257;28;20193;-34
2022/05/17 03:02:58;;;;;;;8.70;5.77;;;22.00;52.00;;;;;;5053417;28;20537;-35
2022/05/17 03:05:25;;;;;;;7.97;5.80;;;22.00;51.80;;;;;;5053366;28;20268;-34
2022/05/17 03:07:50;;;;;;;8.47;5.60;;;22.10;52.20;;;;;;5052987;28;20581;-34
2022/05/17 03:10:17;;;;;;;9.20;6.17;;;22.10;52.00;;;;;;5053113;28;20403;-34
2022/05/17 03:12:43;;;;;;;7.10;5.57;;;22.00;52.10;;;;;;5052973;28;20227;-34
2022/05/17 03:15:12;;;;;;;7.50;5.13;;;22.00;53.20;;;;;;5052869;28;20400;-34
2022/05/17 03:17:38;;;;;;;9.17;6.40;;;21.90;52.20;;;;;;5052704;28;20834;-34
2022/05/17 03:20:05;;;;;;;8.77;7.20;;;21.90;52.10;;;;;;5052975;28;20460;-35
2022/05/17 03:22:31;;;;;;;10.40;7.17;;;21.90;52.50;;;;;;5052788;28;20171;-34
2022/05/17 03:24:56;;;;;;;8.00;5.87;;;21.90;52.10;;;;;;5052816;28;20502;-34
2022/05/17 03:27:23;;;;;;;11.60;8.30;;;21.90;52.30;;;;;;5051683;28;20280;-35
2022/05/17 03:29:49;;;;;;;14.40;7.43;;;21.90;52.30;;;;;;5052998;28;20178;-34
2022/05/17 03:32:15;;;;;;;10.00;7.03;;;21.90;52.30;;;;;;5052956;28;20783;-35
2022/05/17 03:34:41;;;;;;;10.17;7.30;;;21.90;52.30;;;;;;5052619;28;20641;-34
2022/05/17 03:37:07;;;;;;;12.60;8.00;;;21.90;52.80;;;;;;5052482;28;20438;-34
2022/05/17 03:39:33;;;;;;;10.63;8.73;;;21.80;52.60;;;;;;5052591;28;20575;-34
2022/05/17 03:41:58;;;;;;;12.40;7.20;;;21.80;53.00;;;;;;5052337;28;20177;-34
2022/05/17 03:44:24;;;;;;;8.07;6.93;;;21.70;52.60;;;;;;5052418;28;20495;-34
2022/05/17 03:46:50;;;;;;;11.70;7.57;;;21.70;52.40;;;;;;5052363;28;20197;-34
2022/05/17 03:49:15;;;;;;;8.00;6.77;;;21.70;52.40;;;;;;5052473;28;20173;-34
2022/05/17 03:51:41;;;;;;;10.37;7.57;;;21.70;53.10;;;;;;5052548;28;20714;-35
2022/05/17 03:54:07;;;;;;;8.77;6.17;;;21.60;52.90;;;;;;5052235;28;20719;-34
2022/05/17 03:56:33;;;;;;;9.70;7.60;;;21.60;52.80;;;;;;5052088;28;20187;-34
2022/05/17 03:58:58;;;;;;;8.90;6.97;;;21.60;52.70;;;;;;5052117;28;20554;-34
2022/05/17 04:01:24;;;;;;;10.37;5.57;;;21.50;53.10;;;;;;5052506;28;20264;-34
2022/05/17 04:03:50;;;;;;;7.43;6.73;;;21.50;53.00;;;;;;5052340;28;20586;-35
2022/05/17 04:06:15;;;;;;;7.37;6.30;;;21.50;53.40;;;;;;5052270;28;20177;-34
2022/05/17 04:08:41;;;;;;;8.57;5.93;;;21.50;52.80;;;;;;5051792;28;20197;-34
2022/05/17 04:11:07;;;;;;;8.07;6.20;;;21.50;52.80;;;;;;5051934;28;20264;-35
2022/05/17 04:13:34;;;;;;;4.80;4.37;;;21.40;52.60;;;;;;5052460;28;20185;-34
2022/05/17 04:16:01;;;;;;;5.87;4.70;;;21.40;52.80;;;;;;5052248;28;20415;-34
2022/05/17 04:18:28;;;;;;;5.53;4.23;;;21.40;52.30;;;;;;5051586;28;20814;-34
2022/05/17 04:21:02;;;;;;;6.07;4.27;;;21.30;53.40;;;;;;5052039;28;20399;-34
2022/05/17 04:23:28;;;;;;;4.93;3.67;;;21.20;52.20;;;;;;5051980;28;20403;-35
2022/05/17 04:25:53;;;;;;;8.40;3.97;;;21.20;52.20;;;;;;5051867;28;20177;-34
2022/05/17 04:28:19;;;;;;;7.63;4.40;;;21.20;52.60;;;;;;5051830;28;20939;-35
2022/05/17 04:30:45;;;;;;;4.67;3.80;;;21.10;53.20;;;;;;5052026;28;20184;-34
2022/05/17 04:33:11;;;;;;;7.13;3.77;;;21.00;52.80;;;;;;5051890;28;20520;-34
2022/05/17 04:35:37;;;;;;;5.35;3.25;;;21.00;52.60;;;;;;5051904;28;20181;-34
2022/05/17 04:38:03;;;;;;;7.93;4.00;;;21.00;52.80;;;;;;5053201;28;20220;-35
2022/05/17 04:40:28;;;;;;;4.20;3.40;;;20.90;53.00;;;;;;5055817;28;20165;-34
2022/05/17 04:42:57;;;;;;;5.97;5.37;;;20.80;52.90;;;;;;5056122;28;20169;-34
2022/05/17 04:45:23;;;;;;;3.73;2.50;;;20.80;52.90;;;;;;5055951;28;20676;-34
2022/05/17 04:47:49;;;;;;;4.90;3.50;;;20.80;53.20;;;;;;5055417;28;20442;-34
2022/05/17 04:50:16;;;;;;;4.23;3.43;;;20.80;53.00;;;;;;5055777;28;20407;-35
2022/05/17 04:52:43;;;;;;;4.28;2.95;;;20.80;52.90;;;;;;5055613;28;20411;-35
2022/05/17 04:55:11;;;;;;;4.30;3.33;;;20.80;53.10;;;;;;5055506;28;20259;-35
2022/05/17 04:57:38;;;;;;;4.78;3.30;;;20.80;53.10;;;;;;5055467;28;20209;-34
2022/05/17 05:00:07;;;;;;;4.80;3.90;;;20.70;53.30;;;;;;5055187;28;20300;-35
2022/05/17 05:02:33;;;;;;;4.43;3.38;;;20.70;53.20;;;;;;5055449;28;20418;-34
2022/05/17 05:04:58;;;;;;;5.70;3.80;;;20.70;53.70;;;;;;5055510;28;20645;-34
2022/05/17 05:07:24;;;;;;;4.70;3.70;;;20.70;53.20;;;;;;5055056;28;20193;-35
2022/05/17 05:09:50;;;;;;;4.37;3.83;;;20.70;53.90;;;;;;5055444;28;20189;-35
2022/05/17 05:12:15;;;;;;;4.63;3.83;;;20.60;52.80;;;;;;5055466;28;20197;-35
2022/05/17 05:14:41;;;;;;;6.77;3.93;;;20.70;53.10;;;;;;5055393;28;20169;-35
2022/05/17 05:17:09;;;;;;;6.07;4.40;;;20.70;53.10;;;;;;5054899;28;20228;-35
2022/05/17 05:19:35;;;;;;;7.60;4.47;;;20.70;53.40;;;;;;5055027;28;20197;-34
2022/05/17 05:22:01;;;;;;;4.63;4.03;;;20.60;52.60;;;;;;5054944;28;20886;-34
2022/05/17 05:24:26;;;;;;;6.13;4.10;;;20.60;52.80;;;;;;5054946;28;20234;-34
2022/05/17 05:26:52;;;;;;;6.60;3.70;;;20.60;53.50;;;;;;5054796;28;20176;-34
2022/05/17 05:29:17;;;;;;;4.10;3.10;;;20.60;52.90;;;;;;5054892;28;20176;-34
2022/05/17 05:31:43;;;;;;;5.97;3.60;;;20.60;52.50;;;;;;5054936;28;20181;-34
2022/05/17 05:34:09;;;;;;;6.80;4.20;;;20.60;52.50;;;;;;5054886;28;20267;-35
2022/05/17 05:36:34;;;;;;;6.80;4.23;;;20.50;52.40;;;;;;5054736;28;20184;-34
2022/05/17 05:39:00;;;;;;;6.57;3.93;;;20.50;52.40;;;;;;5054436;28;20217;-34
2022/05/17 05:41:26;;;;;;;7.13;5.07;;;20.50;52.50;;;;;;5054914;28;20465;-35
2022/05/17 05:43:52;;;;;;;7.20;4.40;;;20.50;52.60;;;;;;5054939;28;20603;-34
2022/05/17 05:46:17;;;;;;;5.93;4.57;;;20.50;52.50;;;;;;5054759;28;20174;-34
2022/05/17 05:48:43;;;;;;;6.93;4.33;;;20.50;52.50;;;;;;5054253;28;20205;-34
2022/05/17 05:51:09;;;;;;;6.10;4.00;;;20.60;52.40;;;;;;5054004;28;20510;-34
2022/05/17 05:53:35;;;;;;;4.90;3.65;;;20.60;52.50;;;;;;5054680;28;20188;-35
2022/05/17 05:56:05;;;;;;;4.00;3.60;;;20.60;52.30;;;;;;5054704;28;20177;-35
2022/05/17 05:58:36;;;;;;;5.03;3.63;;;20.60;52.50;;;;;;5054268;28;20280;-34
2022/05/17 06:01:02;;;;;;;4.30;3.90;;;20.60;52.70;;;;;;5054333;28;20189;-34
2022/05/17 06:03:28;;;;;;;3.90;3.45;;;20.60;52.60;;;;;;5054346;28;20176;-34
2022/05/17 06:05:54;;;;;;;3.90;3.42;;;20.50;52.30;;;;;;5054294;28;20173;-35
2022/05/17 06:08:21;;;;;;;6.03;4.60;;;20.60;52.70;;;;;;5054170;28;20193;-34
2022/05/17 06:10:47;;;;;;;5.28;3.15;;;20.50;52.30;;;;;;5054408;28;20475;-35
2022/05/17 06:13:14;;;;;;;5.60;4.50;;;20.50;52.20;;;;;;5054355;28;20188;-34
2022/05/17 06:15:40;;;;;;;5.05;4.10;;;20.50;52.30;;;;;;5054119;28;20170;-34
2022/05/17 06:18:07;;;;;;;4.50;3.92;;;20.50;52.30;;;;;;5053662;28;20775;-35
2022/05/17 06:20:34;;;;;;;5.78;3.75;;;20.50;52.50;;;;;;5053918;28;20267;-35
2022/05/17 06:23:00;;;;;;;4.25;3.85;;;20.50;52.60;;;;;;5054363;28;20204;-34
2022/05/17 06:25:25;;;;;;;5.00;3.40;;;20.50;52.70;;;;;;5054019;28;20557;-34
2022/05/17 06:27:51;;;;;;;6.50;3.80;;;20.40;52.50;;;;;;5053721;28;20541;-34
2022/05/17 06:30:17;;;;;;;4.80;3.97;;;20.40;52.80;;;;;;5053932;28;20173;-34
2022/05/17 06:32:44;;;;;;;4.30;3.57;;;20.30;52.90;;;;;;5053820;28;20973;-34
2022/05/17 06:35:11;;;;;;;8.18;4.40;;;20.40;52.90;;;;;;5053690;28;20606;-35
2022/05/17 06:37:37;;;;;;;7.28;4.50;;;20.30;53.50;;;;;;5053347;28;20204;-34
2022/05/17 06:40:04;;;;;;;11.13;5.23;;;20.30;52.80;;;;;;5053748;28;20205;-35
2022/05/17 06:42:30;;;;;;;5.00;3.55;;;20.30;52.80;;;;;;5053720;28;20411;-34
2022/05/17 06:44:56;;;;;;;6.40;3.53;;;20.30;52.80;;;;;;5053414;28;20307;-34
2022/05/17 06:47:22;;;;;;;5.47;3.23;;;20.40;52.70;;;;;;5053133;28;20424;-34
2022/05/17 06:49:47;;;;;;;6.00;4.10;;;20.40;52.70;;;;;;5053707;28;20177;-34
2022/05/17 06:52:13;;;;;;;6.53;4.77;;;20.40;52.80;;;;;;5052112;28;20419;-34
2022/05/17 06:54:43;;;;;;;5.20;4.13;;;20.30;53.00;;;;;;5053419;28;20223;-34
2022/05/17 06:57:10;;;;;;;5.57;4.40;;;20.30;53.10;;;;;;5053109;28;20435;-34
2022/05/17 06:59:39;;;;;;;4.95;3.55;;;20.40;53.10;;;;;;5053136;28;20209;-35
2022/05/17 07:02:05;;;;;;;5.97;4.47;;;20.40;52.80;;;;;;5052191;28;20196;-34
2022/05/17 07:04:33;;;;;;;6.43;4.50;;;20.40;52.80;;;;;;5053346;28;20180;-34
2022/05/17 07:06:59;;;;;;;5.78;3.42;;;20.50;53.00;;;;;;5052986;28;20216;-34
2022/05/17 07:09:27;;;;;;;7.10;4.03;;;20.40;52.90;;;;;;5053207;28;20184;-34
2022/05/17 07:14:39;;;;;;;8.00;3.85;;;20.50;52.80;;;;;;5053364;28;20180;-34
2022/05/17 07:17:21;;;;;;;12.50;4.35;;;20.40;52.70;;;;;;5052890;28;20177;-34
2022/05/17 07:19:47;;;;;;;8.52;4.22;;;20.40;53.20;;;;;;5052869;28;20213;-35
2022/05/17 07:22:13;;;;;;;6.53;4.00;;;20.40;52.80;;;;;;5052840;28;20169;-34
2022/05/17 07:24:41;;;;;;;4.35;3.85;;;20.40;53.00;;;;;;5052937;28;20181;-34
2022/05/17 07:27:07;;;;;;;6.25;4.18;;;20.50;53.40;;;;;;5052421;28;20295;-34
2022/05/17 07:29:34;;;;;;;6.30;3.50;;;20.50;53.30;;;;;;5052976;28;20525;-34
2022/05/17 07:32:00;;;;;;;4.55;3.83;;;20.50;53.00;;;;;;5052668;28;20629;-34
2022/05/17 07:34:27;;;;;;;4.15;3.30;;;20.60;53.10;;;;;;5052652;28;20177;-34
2022/05/17 07:36:53;;;;;;;5.90;3.47;;;20.60;53.30;;;;;;5052261;28;20684;-34
2022/05/17 07:39:19;;;;;;;3.85;2.95;;;20.70;53.30;;;;;;5052965;28;20215;-34
2022/05/17 07:41:45;;;;;;;4.30;3.57;;;20.70;53.20;;;;;;5052483;28;20166;-34
2022/05/17 07:44:11;;;;;;;6.00;3.50;;;20.80;53.70;;;;;;5052770;28;20264;-34
2022/05/17 07:46:37;;;;;;;4.97;3.47;;;20.80;52.90;;;;;;5052418;28;20795;-34
2022/05/17 07:49:03;;;;;;;6.63;4.27;;;20.80;53.50;;;;;;5052141;28;20435;-34
2022/05/17 07:51:29;;;;;;;4.90;3.50;;;20.80;52.90;;;;;;5052794;28;20439;-34
2022/05/17 07:53:55;;;;;;;6.47;3.90;;;20.80;53.20;;;;;;5052390;28;20668;-34
2022/05/17 07:56:21;;;;;;;4.22;3.28;;;20.80;53.10;;;;;;5052263;28;20169;-34
2022/05/17 07:58:46;;;;;;;5.33;3.57;;;20.80;53.20;;;;;;5051893;28;20783;-35
2022/05/17 08:01:12;;;;;;;3.97;3.43;;;20.80;53.20;;;;;;5052141;28;20181;-34
2022/05/17 08:03:38;;;;;;;4.60;3.60;;;20.80;52.80;;;;;;5052197;28;20173;-35
2022/05/17 08:06:05;;;;;;;4.05;3.60;;;20.80;52.90;;;;;;5052150;28;20178;-35
2022/05/17 08:08:31;;;;;;;4.65;2.72;;;20.80;53.00;;;;;;5051906;28;20193;-35
2022/05/17 08:10:57;;;;;;;5.90;4.47;;;20.90;53.20;;;;;;5051994;28;20645;-35
2022/05/17 08:13:23;;;;;;;4.50;3.43;;;20.90;53.40;;;;;;5051997;28;20192;-35
2022/05/17 08:15:50;;;;;;;3.78;3.45;;;21.00;53.10;;;;;;5052040;28;20412;-35
2022/05/17 08:18:17;;;;;;;4.50;3.85;;;21.00;53.00;;;;;;5051742;28;20246;-35
2022/05/17 08:20:44;;;;;;;5.23;3.97;;;21.00;53.00;;;;;;5052325;28;20678;-36
2022/05/17 08:23:10;;;;;;;4.65;3.83;;;21.00;52.80;;;;;;5051922;28;20494;-35
2022/05/17 08:28:20;;;;;;;5.83;4.23;;;20.90;53.00;;;;;;5051675;28;20415;-35
2022/05/17 08:30:47;;;;;;;5.75;4.32;;;20.90;53.10;;;;;;5051867;28;20407;-35
2022/05/17 08:33:16;;;;;;;8.90;4.35;;;20.90;53.10;;;;;;5051922;28;20193;-35
2022/05/17 08:35:46;;;;;;;6.03;4.00;;;21.00;52.90;;;;;;5051635;28;20174;-35
2022/05/17 08:38:15;;;;;;;5.88;4.22;;;21.00;52.90;;;;;;5051745;28;20840;-35
2022/05/17 08:41:13;;;;;;;4.80;4.15;;;21.00;53.00;;;;;;5051978;28;20173;-35
2022/05/17 08:44:00;;;;;;;6.53;4.65;;;21.00;52.80;;;;;;5051772;28;20204;-35
2022/05/17 08:46:41;;;;;;;5.05;4.30;;;21.00;53.00;;;;;;5051682;28;20184;-36
2022/05/17 08:49:23;;;;;;;4.83;4.33;;;21.00;52.80;;;;;;5051430;28;20192;-35
2022/05/17 08:52:17;;;;;;;8.38;5.10;;;21.00;53.00;;;;;;5051718;28;20408;-35
2022/05/17 08:54:46;;;;;;;5.72;4.65;;;21.00;52.70;;;;;;5051616;28;20188;-36
2022/05/17 08:57:29;;;;;;;7.13;4.78;;;21.00;52.90;;;;;;5051511;28;20199;-36
2022/05/17 08:59:56;;;;;;;6.72;4.65;;;21.10;53.00;;;;;;5051570;28;20209;-36
2022/05/17 09:02:42;;;;;;;6.78;5.28;;;21.20;53.00;;;;;;5051638;28;20183;-35
2022/05/17 09:05:14;;;;;;;8.50;5.07;;;21.20;53.10;;;;;;5051771;28;20169;-35
2022/05/17 09:08:07;;;;;;;6.03;4.53;;;21.30;53.50;;;;;;5051300;28;20431;-35
2022/05/17 09:10:37;;;;;;;6.97;5.00;;;21.30;53.30;;;;;;5035719;28;20918;-36
2022/05/17 09:13:23;;;;;;;5.53;4.20;;;21.40;53.40;;;;;;5051483;28;20910;-36
2022/05/17 09:15:52;;;;;;;4.83;4.27;;;21.40;53.00;;;;;;5051053;28;20827;-35
2022/05/17 09:18:19;;;;;;;8.00;5.13;;;21.50;52.90;;;;;;5050977;28;20874;-35
2022/05/17 09:20:45;;;;;;;6.23;4.97;;;21.60;52.70;;;;;;5051419;28;20404;-35
2022/05/17 09:23:11;;;;;;;8.53;5.70;;;21.60;52.60;;;;;;5051434;28;20415;-35
2022/05/17 09:25:49;;;;;;;6.63;5.43;;;21.60;53.00;;;;;;5053817;28;20395;-35
2022/05/17 09:28:19;;;;;;;6.93;5.30;;;21.60;52.90;;;;;;5054746;28;20848;-36
2022/05/17 09:30:45;;;;;;;5.80;4.70;;;21.60;52.30;;;;;;5055131;28;20404;-36
2022/05/17 09:33:15;;;;;;;10.47;5.20;;;21.60;52.70;;;;;;5055084;28;20404;-35
2022/05/17 09:36:01;;;;;;;8.83;4.73;;;21.60;52.50;;;;;;5055319;28;20404;-35
2022/05/17 09:38:32;;;;;;;6.90;5.07;;;21.60;52.20;;;;;;5054469;28;20931;-35
2022/05/17 09:40:57;;;;;;;6.90;4.53;;;21.70;52.60;;;;;;5054972;28;20265;-36
2022/05/17 09:43:45;;;;;;;6.23;5.67;;;21.70;52.30;;;;;;5054925;28;20542;-35
2022/05/17 09:46:16;;;;;;;6.23;5.17;;;21.80;52.30;;;;;;5054718;28;20403;-35
2022/05/17 09:54:43;;;;;;;5.73;4.90;;;21.90;51.90;;;;;;5055002;28;20449;-35
2022/05/17 09:57:22;;;;;;;8.60;5.80;;;21.80;51.80;;;;;;5054156;28;20449;-35
2022/05/17 09:59:50;;;;;;;9.37;5.30;;;21.80;51.70;;;;;;5054498;28;20494;-35
2022/05/17 10:02:34;;;;;;;7.70;4.63;;;21.80;51.60;;;;;;5054377;28;20403;-35
2022/05/17 10:05:09;;;;;;;7.30;5.20;;;21.90;51.70;;;;;;5054518;28;20196;-35
2022/05/17 10:07:35;;;;;;;7.07;4.83;;;21.90;51.70;;;;;;5053934;28;20428;-35
2022/05/17 10:10:24;;;;;;;6.20;4.90;;;21.90;51.70;;;;;;5054425;28;20485;-35
2022/05/17 10:12:52;;;;;;;6.73;4.53;;;21.90;51.40;;;;;;5054241;28;20965;-35
2022/05/17 10:15:19;;;;;;;7.97;5.90;;;21.90;51.50;;;;;;5054220;28;20404;-35
2022/05/17 10:18:26;;;;;;;15.50;8.00;;;21.90;51.60;;;;;;5053690;28;20815;-35
2022/05/17 10:20:57;;;;;;;6.87;5.60;;;21.90;51.60;;;;;;5054032;28;20753;-35
2022/05/17 10:23:49;;;;;;;6.00;4.77;;;21.80;51.50;;;;;;5054173;28;20400;-35
2022/05/17 10:26:19;;;;;;;7.70;5.43;;;21.80;51.40;;;;;;5053837;28;20408;-35
2022/05/17 10:28:53;;;;;;;6.60;4.93;;;21.70;51.50;;;;;;5053654;28;20822;-35
2022/05/17 10:31:30;;;;;;;6.27;5.63;;;21.70;51.70;;;;;;5054035;28;20476;-35
2022/05/17 10:34:46;;;;;;;6.90;5.47;;;21.70;51.80;;;;;;5053936;28;20429;-35
2022/05/17 10:37:21;;;;;;;7.47;5.73;;;21.70;52.10;;;;;;5050049;28;20848;-35
2022/05/17 10:39:55;;;;;;;6.25;5.65;;;21.60;52.80;;;;;;5053603;28;20451;-35
2022/05/17 10:42:21;;;;;;;6.23;5.27;;;21.70;52.80;;;;;;5053658;28;20173;-35
2022/05/17 10:44:52;;;;;;;10.43;6.40;;;21.70;52.70;;;;;;5053689;28;20431;-35
2022/05/17 10:47:55;;;;;;;10.73;6.80;;;21.80;52.50;;;;;;5053229;28;20485;-35
2022/05/17 10:50:53;;;;;;;8.50;6.70;;;21.90;52.80;;;;;;5032123;28;20931;-35
2022/05/17 10:53:54;;;;;;;9.50;5.37;;;22.00;52.60;;;;;;5030371;28;20411;-35
2022/05/17 10:56:25;;;;;;;6.93;6.27;;;22.10;52.80;;;;;;5053530;28;20450;-35
2022/05/17 10:59:01;;;;;;;6.90;5.20;;;22.10;52.50;;;;;;5053418;28;20456;-35
2022/05/17 11:01:35;;;;;;;8.73;5.97;;;22.20;52.60;;;;;;5053232;28;20450;-35
2022/05/17 11:04:36;;;;;;;8.53;6.20;;;22.30;52.60;;;;;;5053553;28;20400;-35
2022/05/17 11:07:18;;;;;;;7.07;6.17;;;22.40;52.80;;;;;;5053053;28;20418;-35
2022/05/17 11:09:57;;;;;;;7.23;5.60;;;22.60;52.50;;;;;;5053213;28;20511;-35
2022/05/17 11:12:28;;;;;;;7.30;5.83;;;22.80;52.40;;;;;;5053380;28;20414;-35
2022/05/17 11:14:57;;;;;;;6.80;6.10;;;23.00;51.90;;;;;;5053241;28;20442;-35
2022/05/17 11:17:37;;;;;;;8.03;6.70;;;23.20;52.10;;;;;;5052782;28;20455;-35
2022/05/17 11:20:35;;;;;;;6.43;5.60;;;23.30;51.60;;;;;;5052957;28;20516;-35
2022/05/17 11:23:53;;;;;;;14.93;6.10;;;23.40;51.10;;;;;;5052674;28;20923;-35
2022/05/17 11:26:33;;;;;;;5.67;4.63;;;23.40;50.60;;;;;;5052873;28;20400;-35
2022/05/17 11:29:08;;;;;;;6.40;5.33;;;23.50;50.60;;;;;;5052522;28;20431;-35
2022/05/17 11:31:54;;;;;;;6.90;5.17;;;23.50;50.50;;;;;;5052928;28;20437;-35
2022/05/17 11:34:23;;;;;;;6.03;5.43;;;23.60;50.50;;;;;;5052758;28;20911;-35
2022/05/17 11:36:51;;;;;;;6.57;4.77;;;23.60;49.80;;;;;;5052457;28;20498;-35
2022/05/17 11:39:29;;;;;;;4.90;4.10;;;23.60;49.40;;;;;;5052435;28;20464;-35
2022/05/17 11:42:07;;;;;;;7.87;5.50;;;23.60;49.00;;;;;;5052731;28;20414;-35
2022/05/17 11:44:45;;;;;;;6.17;4.53;;;23.60;49.10;;;;;;5052614;28;20464;-35
2022/05/17 11:47:31;;;;;;;5.73;5.13;;;23.50;48.80;;;;;;5051598;28;20511;-35
2022/05/17 11:50:42;;;;;;;5.40;4.33;;;23.50;49.30;;;;;;5052361;28;20506;-35
2022/05/17 11:53:41;;;;;;;7.80;5.00;;;23.60;48.80;;;;;;5052474;28;20408;-35
2022/05/17 11:56:18;;;;;;;7.53;5.00;;;23.60;48.90;;;;;;5044412;28;20935;-36
2022/05/17 11:58:46;;;;;;;5.90;5.30;;;23.70;48.70;;;;;;5051951;28;20493;-35
2022/05/17 12:01:30;;;;;;;7.40;5.70;;;23.70;48.40;;;;;;5052104;28;20459;-35
2022/05/17 12:03:56;;;;;;;5.07;4.57;;;23.80;48.70;;;;;;5052242;28;20395;-35
2022/05/17 12:06:38;;;;;;;5.37;4.87;;;23.90;48.70;;;;;;5052150;28;20407;-35
2022/05/17 12:09:11;;;;;;;6.40;4.40;;;23.90;48.40;;;;;;5051916;28;20431;-36
2022/05/17 12:11:56;;;;;;;5.03;4.53;;;24.00;47.90;;;;;;5052233;28;20423;-36
2022/05/17 12:14:26;;;;;;;5.73;4.47;;;24.00;45.70;;;;;;5052025;28;20400;-35
2022/05/17 12:16:59;;;;;;;9.83;6.20;;;24.00;47.10;;;;;;5052036;28;20783;-36
2022/05/17 12:19:45;;;;;;;5.43;4.40;;;24.00;46.90;;;;;;5051853;28;21041;-35
2022/05/17 12:22:27;;;;;;;10.90;5.80;;;24.10;47.40;;;;;;5052098;28;20825;-36
2022/05/17 12:25:11;;;;;;;5.17;4.50;;;24.20;47.00;;;;;;5052017;28;20408;-36
2022/05/17 12:27:42;;;;;;;5.13;4.33;;;24.30;47.10;;;;;;5051863;28;20474;-35
2022/05/17 12:32:53;;;;;;;5.67;4.23;;;24.40;46.80;;;;;;5051927;28;20454;-35
2022/05/17 12:35:26;;;;;;;6.00;4.90;;;24.40;46.80;;;;;;5051746;28;20453;-35
2022/05/17 12:37:53;;;;;;;6.37;4.57;;;24.50;46.40;;;;;;5051525;28;20985;-35
2022/05/17 12:43:11;;;;;;;9.07;4.37;;;24.70;46.20;;;;;;5052070;28;20975;-35
2022/05/17 12:46:14;;;;;;;5.53;4.03;;;24.70;46.00;;;;;;5051684;28;20921;-35
2022/05/17 12:48:41;;;;;;;5.70;4.67;;;24.70;45.70;;;;;;5051565;28;20432;-35
2022/05/17 12:51:10;;;;;;;8.27;4.90;;;24.70;45.70;;;;;;5051851;28;20482;-35
2022/05/17 12:53:42;;;;;;;6.83;5.13;;;24.70;45.60;;;;;;5051818;28;20415;-35
2022/05/17 12:56:16;;;;;;;9.00;6.30;;;24.70;45.50;;;;;;5051575;28;20466;-35
2022/05/17 12:59:03;;;;;;;5.97;5.40;;;24.60;45.20;;;;;;5051501;28;20491;-36
2022/05/17 13:01:38;;;;;;;5.27;4.30;;;24.50;45.50;;;;;;5055390;28;20950;-35
2022/05/17 13:04:09;;;;;;;8.43;4.37;;;24.50;45.70;;;;;;5055582;28;20445;-35
2022/05/17 13:06:36;;;;;;;5.57;4.17;;;24.40;45.60;;;;;;5055402;28;20806;-35
2022/05/17 13:09:04;;;;;;;5.90;4.30;;;24.40;45.40;;;;;;5055226;28;20485;-35
2022/05/17 13:11:29;;;;;;;4.30;3.90;;;24.40;45.50;;;;;;5055591;28;20494;-35
2022/05/17 13:14:00;;;;;;;6.07;5.57;;;24.30;45.50;;;;;;5055336;28;20526;-35
2022/05/17 13:16:32;;;;;;;5.03;4.57;;;24.30;45.30;;;;;;5055448;28;20227;-35
2022/05/17 13:19:04;;;;;;;9.03;4.80;;;24.30;45.40;;;;;;5054923;28;20455;-35
2022/05/17 13:21:31;;;;;;;6.00;4.37;;;24.20;45.50;;;;;;5055471;28;20416;-35